Bremen, Illinois
Current Conditions -  °F | °C
As of 12:55 PM on Sunday 23 Nov 2014 (Local Time) from KSAR Reporting Station
Light Rain Light Rain  
Wind Chill: 54°   Ceiling: 600
Heat Index: 54°   Visibility: 7mi
Dew Point: 52°   Wind: 9mph
Humidity: 95%   Direction: 130°SE
Pressure: 29.49"   Gusts: NA
Location:  37.9444°N, 89.7851°W
Report Text: KSAR 231855Z AUTO 13008KT 7SM -RA OVC006 12/11 A2949 RMK AO2 P0001 T01200113
Loading
Personal Weather Stations






























Interactive Weather Map New forecast layout! Learn more

10-Day Weather Forecast

Advertisements
Track Severe Weather on mobile